Time;durP1;ratioP1;P1;durP2;ratioP2;P2;SDS_P1;SDS_P2;PMS_P1;PMS_P2;Temp;Humidity;BMP_temperature;BMP_pressure;BME280_temperature;BME280_humidity;BME280_pressure;Samples;Min_cycle;Max_cycle;Signal;HPM_P1;HPM_P2
2022/12/18 00:03:00;;;;;;;10.80;7.77;;;;;;;-2.55;87.36;99102.28;6291933;28;20789;-44
2022/12/18 00:06:02;;;;;;;12.73;7.93;;;;;;;-2.57;87.42;99096.25;6292554;28;20688;-45
2022/12/18 00:09:05;;;;;;;13.90;8.57;;;;;;;-2.56;87.84;99087.66;6295203;28;20214;-45
2022/12/18 00:12:07;;;;;;;11.97;6.97;;;;;;;-2.57;87.28;99101.44;6291988;28;20309;-45
2022/12/18 00:15:16;;;;;;;12.90;7.90;;;;;;;-2.58;87.73;99109.19;6290224;28;20231;-44
2022/12/18 00:18:18;;;;;;;12.33;7.10;;;;;;;-2.58;87.98;99106.59;6291498;28;20214;-44
2022/12/18 00:21:21;;;;;;;13.63;8.70;;;;;;;-2.62;88.01;99110.94;6294006;28;20226;-43
2022/12/18 00:24:24;;;;;;;12.27;7.93;;;;;;;-2.70;88.35;99107.53;6289965;28;20573;-43
2022/12/18 00:27:26;;;;;;;11.73;7.53;;;;;;;-2.84;88.20;99112.75;6292498;28;20290;-44
2022/12/18 00:30:28;;;;;;;14.83;7.90;;;;;;;-3.01;88.78;99110.25;6291117;28;20229;-44
2022/12/18 00:33:30;;;;;;;11.70;7.30;;;;;;;-3.12;89.21;99116.31;6282842;28;20279;-45
2022/12/18 00:36:34;;;;;;;11.30;7.00;;;;;;;-3.28;89.27;99112.88;6292910;28;20230;-44
2022/12/18 00:39:36;;;;;;;11.97;6.60;;;;;;;-3.41;89.33;99118.97;6274056;28;20218;-43
2022/12/18 00:42:56;;;;;;;11.87;7.20;;;;;;;-3.52;90.07;99118.09;6290690;28;20322;-44
2022/12/18 00:45:58;;;;;;;12.80;7.37;;;;;;;-3.69;89.39;99119.84;6288538;28;20237;-45
2022/12/18 00:49:01;;;;;;;11.70;6.97;;;;;;;-3.92;90.23;99123.28;6291558;28;20244;-44
2022/12/18 00:52:03;;;;;;;13.23;7.10;;;;;;;-4.12;90.42;99127.56;6293914;28;20683;-44
2022/12/18 00:55:05;;;;;;;11.20;6.93;;;;;;;-4.25;89.59;99126.69;6272267;28;20727;-48
2022/12/18 00:58:10;;;;;;;14.30;7.50;;;;;;;-4.37;90.45;99136.94;6291802;28;20240;-46
2022/12/18 01:01:12;;;;;;;11.03;6.37;;;;;;;-4.51;90.16;99136.94;6288651;28;20226;-45
2022/12/18 01:04:15;;;;;;;11.00;6.60;;;;;;;-4.64;90.55;99144.59;6273782;28;20237;-46
2022/12/18 01:07:19;;;;;;;11.83;6.17;;;;;;;-4.75;90.79;99146.28;6271960;28;20231;-44
2022/12/18 01:10:23;;;;;;;10.80;5.90;;;;;;;-4.85;91.07;99153.97;6272858;28;20827;-44
2022/12/18 01:13:25;;;;;;;10.27;6.37;;;;;;;-4.94;90.99;99155.63;6288146;28;20249;-45
2022/12/18 01:16:27;;;;;;;11.07;6.10;;;;;;;-5.03;91.33;99160.75;6273822;28;20262;-44
2022/12/18 01:19:30;;;;;;;8.23;5.47;;;;;;;-5.11;91.46;99159.84;6290361;28;20311;-45
2022/12/18 01:22:33;;;;;;;9.27;5.47;;;;;;;-5.20;91.58;99163.22;6287825;28;20233;-45
2022/12/18 01:25:38;;;;;;;8.00;5.50;;;;;;;-5.29;91.36;99171.72;6290742;28;20229;-44
2022/12/18 01:28:44;;;;;;;11.27;6.00;;;;;;;-5.36;91.94;99167.41;6287024;28;20598;-43
2022/12/18 01:31:46;;;;;;;8.87;5.43;;;;;;;-5.40;91.90;99167.38;6294191;28;20242;-44
2022/12/18 01:34:48;;;;;;;8.93;5.30;;;;;;;-5.47;91.78;99168.16;6272772;28;20335;-44
2022/12/18 01:37:55;;;;;;;8.90;6.20;;;;;;;-5.54;91.81;99175.00;6309516;28;20321;-44
2022/12/18 01:40:58;;;;;;;9.47;5.90;;;;;;;-5.62;92.20;99174.94;6282661;28;20728;-44
2022/12/18 01:44:02;;;;;;;9.97;6.37;;;;;;;-5.69;91.89;99173.13;6289237;28;20282;-45
2022/12/18 01:47:05;;;;;;;9.33;6.30;;;;;;;-5.74;92.39;99174.84;6290283;28;20233;-45
2022/12/18 01:50:18;;;;;;;9.90;6.07;;;;;;;-5.79;92.04;99180.78;6289197;28;20621;-46
2022/12/18 01:53:23;;;;;;;11.47;6.57;;;;;;;-5.84;92.20;99192.72;6288816;28;20218;-45
2022/12/18 01:56:25;;;;;;;13.27;7.17;;;;;;;-5.91;92.34;99189.28;6288249;28;20246;-46
2022/12/18 01:59:29;;;;;;;13.30;7.73;;;;;;;-6.00;92.33;99186.63;6268794;28;20232;-46
2022/12/18 02:02:32;;;;;;;14.47;7.83;;;;;;;-6.07;92.41;99189.97;6275710;28;20843;-44
2022/12/18 02:06:03;;;;;;;12.63;7.70;;;;;;;-6.15;92.48;99182.19;6270581;28;20335;-44
2022/12/18 02:09:12;;;;;;;15.47;8.80;;;;;;;-6.17;92.68;99204.44;6271023;28;20220;-44
2022/12/18 02:12:17;;;;;;;14.53;8.20;;;;;;;-6.27;92.62;99199.19;6289334;28;20697;-44
2022/12/18 02:15:32;;;;;;;16.43;8.33;;;;;;;-6.30;92.73;99202.59;6286493;28;20325;-44
2022/12/18 02:18:44;;;;;;;14.57;8.40;;;;;;;-6.35;92.99;99199.97;6303715;28;20234;-44
2022/12/18 02:21:50;;;;;;;14.73;8.90;;;;;;;-6.38;92.90;99204.19;6290590;28;20598;-45
2022/12/18 02:25:10;;;;;;;17.63;9.80;;;;;;;-6.42;93.32;99200.75;6290254;28;20268;-44
2022/12/18 02:28:15;;;;;;;17.70;9.83;;;;;;;-6.49;92.75;99205.81;6289031;28;20254;-45
2022/12/18 02:31:23;;;;;;;16.63;9.97;;;;;;;-6.53;93.36;99211.72;6274921;28;20231;-43
2022/12/18 02:34:32;;;;;;;18.70;10.80;;;;;;;-6.56;92.90;99216.81;6289493;28;20231;-44
2022/12/18 02:37:36;;;;;;;16.17;10.23;;;;;;;-6.65;92.78;99215.00;6271883;28;20230;-43
2022/12/18 02:40:42;;;;;;;18.13;9.77;;;;;;;-6.74;92.40;99213.19;6274699;28;20442;-44
2022/12/18 02:44:02;;;;;;;22.43;10.70;;;;;;;-6.80;92.73;99217.41;6271146;28;20227;-44
2022/12/18 02:47:12;;;;;;;23.07;11.90;;;;;;;-6.90;92.46;99223.25;6286988;28;20314;-44
2022/12/18 02:50:36;;;;;;;22.20;11.83;;;;;;;-6.97;92.65;99217.16;6296108;28;20237;-44
2022/12/18 02:53:50;;;;;;;21.27;11.63;;;;;;;-7.01;92.93;99233.34;6274844;28;20223;-44
2022/12/18 02:56:56;;;;;;;24.27;13.07;;;;;;;-7.07;93.03;99236.69;6276200;28;20322;-43
2022/12/18 03:00:01;;;;;;;24.27;12.33;;;;;;;-7.12;93.09;99234.91;6292386;28;20459;-44
2022/12/18 03:03:18;;;;;;;22.17;12.70;;;;;;;-7.21;93.19;99234.78;6271936;28;20237;-44
2022/12/18 03:06:48;;;;;;;20.67;12.00;;;;;;;-7.25;93.16;99236.41;6279474;28;20280;-45
2022/12/18 03:09:54;;;;;;;19.77;11.53;;;;;;;-7.26;93.30;99244.09;6266686;28;20569;-44
2022/12/18 03:13:04;;;;;;;21.63;11.80;;;;;;;-7.29;92.83;99250.03;6293444;28;20233;-44
2022/12/18 03:16:15;;;;;;;21.07;11.87;;;;;;;-7.26;94.03;99249.22;6273633;28;20235;-44
2022/12/18 03:19:21;;;;;;;21.67;11.80;;;;;;;-7.25;93.27;99245.81;6295786;28;20291;-43
2022/12/18 03:22:30;;;;;;;19.70;10.23;;;;;;;-7.22;93.82;99253.56;6292269;28;20218;-45
2022/12/18 03:25:34;;;;;;;20.07;10.93;;;;;;;-7.18;94.36;99247.63;6292964;28;20233;-43
2022/12/18 03:28:42;;;;;;;19.67;11.03;;;;;;;-7.20;93.71;99239.06;6275204;28;20318;-45
2022/12/18 03:31:51;;;;;;;21.07;10.87;;;;;;;-7.34;94.14;99241.41;6278350;28;20272;-44
2022/12/18 03:35:00;;;;;;;17.10;9.40;;;;;;;-7.43;94.23;99250.66;6290378;28;20241;-43
2022/12/18 03:38:06;;;;;;;16.60;9.47;;;;;;;-7.47;94.55;99254.84;6276156;28;20233;-43
2022/12/18 03:41:22;;;;;;;16.37;8.43;;;;;;;-7.52;94.36;99264.19;6279029;28;20238;-45
2022/12/18 03:44:53;;;;;;;16.30;8.90;;;;;;;-7.52;93.51;99259.94;6292174;28;20234;-45
2022/12/18 03:48:12;;;;;;;16.47;8.70;;;;;;;-7.59;94.30;99273.50;6273704;28;20256;-44
2022/12/18 03:51:43;;;;;;;15.67;9.83;;;;;;;-7.71;93.09;99275.81;6295486;28;20351;-46
2022/12/18 03:54:47;;;;;;;18.80;8.60;;;;;;;-7.77;93.34;99274.84;6274783;28;20233;-44
2022/12/18 03:57:53;;;;;;;16.03;9.10;;;;;;;-7.77;93.45;99272.28;6274884;28;20234;-45
2022/12/18 04:01:02;;;;;;;16.17;9.17;;;;;;;-7.85;93.10;99272.16;6273781;28;20375;-45
2022/12/18 04:04:05;;;;;;;16.07;9.33;;;;;;;-7.95;94.06;99272.81;6292955;28;20238;-43
2022/12/18 04:07:11;;;;;;;15.43;8.00;;;;;;;-7.99;93.23;99286.41;6274414;28;20225;-44
2022/12/18 04:10:15;;;;;;;14.67;8.43;;;;;;;-8.00;93.56;99287.25;6291994;28;20316;-44
2022/12/18 04:13:28;;;;;;;15.13;8.63;;;;;;;-8.02;93.22;99294.03;6289041;28;20237;-44
2022/12/18 04:16:33;;;;;;;14.60;8.63;;;;;;;-8.06;93.79;99287.97;6273180;28;20238;-43
2022/12/18 04:19:37;;;;;;;16.33;9.53;;;;;;;-8.11;93.75;99296.41;6274331;28;20308;-43
2022/12/18 04:22:42;;;;;;;17.27;7.70;;;;;;;-8.17;93.36;99307.38;6275575;28;20221;-43
2022/12/18 04:25:46;;;;;;;15.83;8.93;;;;;;;-8.18;94.02;99298.84;6273214;28;20226;-44
2022/12/18 04:28:55;;;;;;;14.47;8.53;;;;;;;-8.16;93.19;99305.69;6279875;28;20722;-43
2022/12/18 04:31:57;;;;;;;14.87;8.20;;;;;;;-8.18;94.07;99306.53;6275870;28;20245;-45
2022/12/18 04:35:00;;;;;;;16.50;8.23;;;;;;;-8.20;93.90;99310.78;6271553;28;20222;-43
2022/12/18 04:38:02;;;;;;;14.37;8.43;;;;;;;-8.26;93.20;99315.75;6292906;28;20245;-43
2022/12/18 04:41:04;;;;;;;16.27;9.40;;;;;;;-8.33;94.16;99316.50;6291410;28;20655;-44
2022/12/18 04:44:06;;;;;;;15.80;9.60;;;;;;;-8.37;94.03;99324.06;6272260;28;20223;-44
2022/12/18 04:47:08;;;;;;;16.73;8.77;;;;;;;-8.40;92.91;99317.22;6291428;28;20229;-45
2022/12/18 04:50:11;;;;;;;15.90;8.30;;;;;;;-8.40;93.13;99322.34;6292305;28;20315;-43
2022/12/18 04:53:13;;;;;;;15.07;7.80;;;;;;;-8.43;93.24;99326.53;6292496;28;20295;-45
2022/12/18 04:56:16;;;;;;;15.93;8.37;;;;;;;-8.46;93.78;99329.88;6284107;28;20574;-43
2022/12/18 04:59:18;;;;;;;17.57;8.37;;;;;;;-8.45;94.43;99331.59;6290955;28;20241;-46
2022/12/18 05:02:20;;;;;;;15.87;8.50;;;;;;;-8.45;92.98;99334.16;6291062;28;20759;-44
2022/12/18 05:05:22;;;;;;;14.07;8.37;;;;;;;-8.49;92.99;99342.63;6291746;28;20230;-46
2022/12/18 05:08:24;;;;;;;14.57;7.80;;;;;;;-8.56;92.93;99348.41;6287053;28;20272;-43
2022/12/18 05:11:26;;;;;;;11.90;7.20;;;;;;;-8.62;93.97;99354.28;6290934;28;20245;-46
2022/12/18 05:14:29;;;;;;;15.70;8.50;;;;;;;-8.61;92.92;99348.34;6290369;28;20236;-43
2022/12/18 05:17:31;;;;;;;11.87;7.63;;;;;;;-8.59;94.04;99358.59;6289949;28;20230;-44
2022/12/18 05:20:33;;;;;;;13.53;7.37;;;;;;;-8.62;93.29;99361.09;6304624;28;20232;-45
2022/12/18 05:23:35;;;;;;;14.40;7.83;;;;;;;-8.65;93.84;99361.88;6291453;28;20259;-44
2022/12/18 05:26:38;;;;;;;14.13;7.23;;;;;;;-8.71;92.57;99353.22;6288235;28;20245;-44
2022/12/18 05:29:40;;;;;;;11.60;7.23;;;;;;;-8.75;92.85;99352.25;6290984;28;20732;-44
2022/12/18 05:32:42;;;;;;;12.63;8.00;;;;;;;-8.77;93.15;99353.91;6291097;28;20659;-45
2022/12/18 05:35:49;;;;;;;14.10;8.00;;;;;;;-8.81;93.32;99354.69;6289425;28;20263;-44
2022/12/18 05:38:51;;;;;;;11.00;6.77;;;;;;;-8.82;92.89;99354.66;6287738;28;20729;-45
2022/12/18 05:41:53;;;;;;;12.57;7.67;;;;;;;-8.85;92.91;99354.56;6287655;28;20222;-44
2022/12/18 05:44:55;;;;;;;17.73;9.73;;;;;;;-8.86;92.40;99360.50;6275103;28;20302;-43
2022/12/18 05:47:58;;;;;;;14.37;7.33;;;;;;;-8.91;93.00;99357.00;6290063;28;20229;-45
2022/12/18 05:51:08;;;;;;;15.10;8.00;;;;;;;-8.93;92.81;99356.97;6276845;28;20601;-44
2022/12/18 05:54:11;;;;;;;14.83;7.53;;;;;;;-8.93;93.41;99368.88;6277868;28;20234;-43
2022/12/18 05:57:13;;;;;;;13.43;7.60;;;;;;;-8.96;93.00;99369.66;6288374;28;20210;-44
2022/12/18 06:00:16;;;;;;;15.40;7.80;;;;;;;-8.98;92.69;99384.09;6289306;28;20311;-43
2022/12/18 06:03:18;;;;;;;13.60;7.60;;;;;;;-9.01;93.06;99367.00;6288803;28;20206;-44
2022/12/18 06:06:23;;;;;;;14.47;7.73;;;;;;;-9.01;92.90;99377.25;6292550;28;20237;-43
2022/12/18 06:09:25;;;;;;;17.57;7.90;;;;;;;-9.05;93.21;99390.75;6289669;28;20595;-46
2022/12/18 06:12:27;;;;;;;15.87;8.20;;;;;;;-9.06;92.89;99385.59;6291392;28;20279;-43
2022/12/18 06:15:29;;;;;;;15.07;7.80;;;;;;;-9.07;93.49;99391.53;6290140;28;20312;-43
2022/12/18 06:18:32;;;;;;;15.03;7.73;;;;;;;-9.06;93.21;99396.69;6287319;28;20315;-43
2022/12/18 06:21:34;;;;;;;15.30;7.93;;;;;;;-9.08;93.20;99382.19;6293132;28;20307;-45
2022/12/18 06:24:37;;;;;;;15.67;7.73;;;;;;;-9.13;93.91;99387.16;6281106;28;20237;-43
2022/12/18 06:27:39;;;;;;;14.97;8.63;;;;;;;-9.14;93.43;99393.09;6293792;28;20317;-44
2022/12/18 06:30:46;;;;;;;17.43;7.97;;;;;;;-9.16;92.86;99389.63;6297005;28;20352;-43
2022/12/18 06:33:48;;;;;;;12.33;6.93;;;;;;;-9.17;93.30;99387.91;6293976;28;20371;-43
2022/12/18 06:36:51;;;;;;;13.60;7.33;;;;;;;-9.17;92.63;99393.00;6292717;28;20258;-44
2022/12/18 06:39:53;;;;;;;15.17;7.83;;;;;;;-9.16;93.55;99393.88;6295009;28;20760;-44
2022/12/18 06:42:56;;;;;;;15.13;7.83;;;;;;;-9.19;93.28;99404.91;6291415;28;20705;-45
2022/12/18 06:46:00;;;;;;;17.37;8.30;;;;;;;-9.24;92.92;99403.91;6291794;28;21273;-44
2022/12/18 06:49:02;;;;;;;18.07;8.57;;;;;;;-9.26;93.14;99412.38;6293358;28;20303;-43
2022/12/18 06:52:04;;;;;;;16.10;8.23;;;;;;;-9.21;92.81;99416.78;6292955;28;20232;-45
2022/12/18 06:55:10;;;;;;;14.53;7.73;;;;;;;-9.16;92.25;99411.78;6291721;28;20756;-42
2022/12/18 06:58:12;;;;;;;13.53;7.63;;;;;;;-9.10;92.62;99417.94;6292346;28;20249;-43
2022/12/18 07:01:15;;;;;;;18.17;7.67;;;;;;;-9.09;92.64;99418.78;6293170;28;20232;-43
2022/12/18 07:04:17;;;;;;;15.50;7.83;;;;;;;-9.05;93.58;99428.25;6290877;28;20311;-45
2022/12/18 07:07:19;;;;;;;15.53;8.60;;;;;;;-9.00;92.56;99427.56;6293402;28;20319;-42
2022/12/18 07:10:21;;;;;;;14.97;8.27;;;;;;;-8.96;92.64;99431.03;6290306;28;20234;-42
2022/12/18 07:13:23;;;;;;;14.77;7.63;;;;;;;-8.98;92.50;99438.66;6292155;28;20261;-44
2022/12/18 07:16:28;;;;;;;15.77;7.67;;;;;;;-8.96;93.21;99444.69;6292778;28;20241;-43
2022/12/18 07:19:30;;;;;;;12.47;7.50;;;;;;;-8.94;92.17;99447.28;6275217;28;20286;-43
2022/12/18 07:22:33;;;;;;;14.47;8.13;;;;;;;-8.91;92.79;99452.50;6289986;28;20317;-42
2022/12/18 07:25:36;;;;;;;14.30;7.97;;;;;;;-8.84;93.30;99464.59;6292039;28;20233;-43
2022/12/18 07:28:39;;;;;;;13.57;7.97;;;;;;;-8.79;92.00;99475.81;6307405;28;20258;-44
2022/12/18 07:31:41;;;;;;;13.63;7.17;;;;;;;-8.71;93.19;99473.44;6292614;28;20730;-43
2022/12/18 07:34:44;;;;;;;16.93;8.27;;;;;;;-8.66;92.06;99471.84;6291817;28;20641;-43
2022/12/18 07:37:47;;;;;;;15.30;7.17;;;;;;;-8.59;92.97;99481.44;6278050;28;20232;-42
2022/12/18 07:40:49;;;;;;;15.17;7.67;;;;;;;-8.53;91.87;99485.81;6292129;28;20236;-42
2022/12/18 07:43:52;;;;;;;14.23;7.50;;;;;;;-8.48;92.19;99491.94;6293322;28;20251;-44
2022/12/18 07:46:54;;;;;;;12.07;7.53;;;;;;;-8.46;92.63;99492.81;6290460;28;20768;-44
2022/12/18 07:49:56;;;;;;;13.67;7.17;;;;;;;-8.40;92.12;99488.72;6293669;28;20308;-42
2022/12/18 07:53:03;;;;;;;15.97;8.20;;;;;;;-8.32;91.14;99502.56;6292826;28;20246;-43
2022/12/18 07:56:08;;;;;;;14.10;7.10;;;;;;;-8.28;91.84;99496.63;6298856;28;20237;-44
2022/12/18 07:59:31;;;;;;;13.50;7.63;;;;;;;-8.22;91.40;99503.59;6303926;28;20230;-45
2022/12/18 08:02:33;;;;;;;13.73;7.43;;;;;;;-8.12;91.15;99502.13;6293521;28;20234;-45
2022/12/18 08:05:35;;;;;;;14.03;8.30;;;;;;;-8.03;91.84;99512.56;6292696;28;20329;-45
2022/12/18 08:08:37;;;;;;;13.47;8.77;;;;;;;-7.90;90.70;99515.44;6294544;28;20702;-43
2022/12/18 08:11:39;;;;;;;17.33;8.57;;;;;;;-7.80;91.61;99510.53;6291366;28;20237;-43
2022/12/18 08:14:42;;;;;;;18.23;8.83;;;;;;;-7.65;91.44;99508.28;6291247;28;20701;-43
2022/12/18 08:17:44;;;;;;;15.13;9.00;;;;;;;-7.41;90.42;99506.22;6291919;28;20234;-43
2022/12/18 08:20:46;;;;;;;17.03;8.67;;;;;;;-7.29;91.00;99495.34;6287867;28;20263;-44
2022/12/18 08:23:49;;;;;;;16.93;8.50;;;;;;;-7.21;90.58;99498.94;6290566;28;20241;-43
2022/12/18 08:26:52;;;;;;;16.73;9.57;;;;;;;-6.97;89.93;99490.81;6293784;28;20233;-43
2022/12/18 08:30:15;;;;;;;17.17;9.67;;;;;;;-6.72;89.78;99499.00;6289836;28;20233;-43
2022/12/18 08:33:17;;;;;;;16.53;8.37;;;;;;;-6.34;89.41;99501.31;6292937;28;20331;-43
2022/12/18 08:36:22;;;;;;;21.73;9.83;;;;;;;-5.92;88.35;99498.53;6292893;28;20218;-43
2022/12/18 08:39:25;;;;;;;15.53;8.70;;;;;;;-5.64;87.36;99495.47;6293049;28;20709;-43
2022/12/18 08:45:48;;;;;;;17.63;8.70;;;;;;;-5.01;86.56;99493.66;6289428;28;20241;-43
2022/12/18 08:48:52;;;;;;;15.47;8.10;;;;;;;-4.70;85.57;99492.25;6289075;28;20925;-45
2022/12/18 08:51:56;;;;;;;16.10;8.37;;;;;;;-4.46;85.01;99498.47;6289242;28;20226;-44
2022/12/18 08:54:59;;;;;;;17.43;9.13;;;;;;;-4.29;84.14;99495.19;6289981;28;20722;-44
2022/12/18 08:58:01;;;;;;;16.13;9.20;;;;;;;-4.06;84.17;99500.50;6288854;28;20329;-46
2022/12/18 09:01:05;;;;;;;15.07;8.50;;;;;;;-3.85;84.39;99511.81;6290868;28;20526;-43
2022/12/18 09:04:09;;;;;;;16.30;8.53;;;;;;;-3.69;83.33;99512.75;6280423;28;20277;-43
2022/12/18 09:07:11;;;;;;;16.60;9.17;;;;;;;-3.63;82.29;99515.41;6273282;28;20275;-43
2022/12/18 09:10:13;;;;;;;16.93;9.40;;;;;;;-3.47;83.98;99518.91;6290094;28;20629;-45
2022/12/18 09:13:16;;;;;;;15.87;9.43;;;;;;;-3.33;83.19;99513.81;6290376;28;20240;-44
2022/12/18 09:16:19;;;;;;;19.33;9.83;;;;;;;-3.14;83.48;99501.00;6284889;28;20600;-43
2022/12/18 09:19:21;;;;;;;18.77;10.97;;;;;;;-2.96;83.07;99505.34;6289977;28;20279;-45
2022/12/18 09:22:23;;;;;;;19.30;10.33;;;;;;;-2.74;82.38;99503.69;6288493;28;20593;-44
2022/12/18 09:25:27;;;;;;;17.77;10.53;;;;;;;-2.51;81.78;99499.44;6290941;28;20569;-45
2022/12/18 09:28:29;;;;;;;21.87;12.73;;;;;;;-2.58;80.78;99497.66;6289512;28;20358;-43
2022/12/18 09:31:31;;;;;;;22.03;12.13;;;;;;;-2.83;80.59;99503.66;6289505;28;20597;-43
2022/12/18 09:34:34;;;;;;;21.60;11.70;;;;;;;-2.79;81.59;99503.66;6288768;28;20591;-44
2022/12/18 09:37:36;;;;;;;20.83;12.17;;;;;;;-2.81;80.70;99495.06;6290229;28;20601;-45
2022/12/18 09:40:47;;;;;;;23.27;12.57;;;;;;;-2.84;80.52;99487.31;6287967;28;20232;-43
2022/12/18 09:43:59;;;;;;;23.27;13.40;;;;;;;-2.71;80.51;99485.63;6287411;28;20711;-46
2022/12/18 09:47:30;;;;;;;21.10;12.23;;;;;;;-2.40;80.50;99494.28;6284039;28;20590;-44
2022/12/18 09:50:39;;;;;;;19.87;11.67;;;;;;;-2.25;79.54;99496.84;6279260;28;20320;-44
2022/12/18 09:53:50;;;;;;;23.53;13.60;;;;;;;-2.61;78.84;99503.72;6270843;28;20233;-43
2022/12/18 09:56:52;;;;;;;23.27;13.33;;;;;;;-2.99;80.51;99498.44;6288625;28;20276;-44
2022/12/18 10:00:10;;;;;;;24.20;13.37;;;;;;;-2.75;81.15;99494.22;6286797;28;20328;-44
2022/12/18 10:03:16;;;;;;;23.90;13.47;;;;;;;-2.52;80.38;99497.69;6289545;28;20230;-44
2022/12/18 10:06:42;;;;;;;22.77;12.93;;;;;;;-2.56;78.60;99484.75;6289082;28;20658;-44
2022/12/18 10:09:56;;;;;;;21.67;13.40;;;;;;;-2.72;79.73;99489.06;6288548;28;20353;-44
2022/12/18 10:13:19;;;;;;;24.47;14.30;;;;;;;-2.98;79.84;99479.50;6286829;28;20257;-43
2022/12/18 10:16:27;;;;;;;30.17;15.00;;;;;;;-3.06;81.27;99486.38;6285665;28;20275;-43
2022/12/18 10:19:29;;;;;;;25.23;13.90;;;;;;;-3.03;81.17;99475.22;6286718;28;20587;-43
2022/12/18 10:22:34;;;;;;;25.70;13.93;;;;;;;-3.02;81.26;99480.38;6288921;28;20230;-43
2022/12/18 10:25:45;;;;;;;25.60;13.73;;;;;;;-2.86;81.14;99488.16;6277154;28;20284;-43
2022/12/18 10:28:47;;;;;;;24.27;13.87;;;;;;;-2.97;80.08;99483.81;6288942;28;20229;-44
2022/12/18 10:31:51;;;;;;;27.20;14.87;;;;;;;-3.02;81.28;99487.28;6292048;28;20704;-43
2022/12/18 10:34:57;;;;;;;27.87;13.97;;;;;;;-3.05;80.84;99488.13;6270231;28;20225;-44
2022/12/18 10:38:05;;;;;;;25.80;14.50;;;;;;;-3.08;80.97;99475.19;6290254;28;20321;-44
2022/12/18 10:41:25;;;;;;;25.97;13.37;;;;;;;-2.93;82.07;99482.13;6291333;28;20455;-43
2022/12/18 10:44:28;;;;;;;23.73;14.00;;;;;;;-2.86;80.80;99470.94;6289682;28;20234;-43
2022/12/18 10:47:30;;;;;;;27.87;14.83;;;;;;;-2.87;80.44;99476.09;6285602;28;20701;-43
2022/12/18 10:50:35;;;;;;;27.13;14.67;;;;;;;-2.85;80.56;99470.06;6291360;28;20654;-43
2022/12/18 10:54:01;;;;;;;27.50;15.27;;;;;;;-2.69;80.26;99465.78;6290032;28;20349;-43
2022/12/18 10:57:26;;;;;;;30.90;16.00;;;;;;;-2.48;80.40;99458.06;6287792;28;20717;-43
2022/12/18 11:00:30;;;;;;;27.37;15.33;;;;;;;-2.40;79.35;99465.84;6281272;28;20218;-43
2022/12/18 11:03:35;;;;;;;27.47;15.03;;;;;;;-2.66;78.96;99452.88;6288624;28;20614;-45
2022/12/18 11:06:57;;;;;;;24.47;13.70;;;;;;;-2.75;79.44;99461.50;6287511;28;20230;-43
2022/12/18 11:10:01;;;;;;;26.83;14.30;;;;;;;-2.62;80.25;99449.44;6290830;28;20234;-43
2022/12/18 11:13:31;;;;;;;27.97;14.73;;;;;;;-2.51;79.67;99446.88;6294163;28;20230;-43
2022/12/18 11:16:37;;;;;;;30.50;16.13;;;;;;;-2.58;79.76;99450.28;6288585;28;20614;-44
2022/12/18 11:19:41;;;;;;;27.00;14.07;;;;;;;-2.52;79.90;99456.34;6291107;28;20243;-43
2022/12/18 11:22:43;;;;;;;28.77;15.63;;;;;;;-2.50;80.15;99452.03;6292376;28;20248;-43
2022/12/18 11:26:01;;;;;;;27.47;15.37;;;;;;;-2.62;80.10;99446.88;6274504;28;20716;-43
2022/12/18 11:29:17;;;;;;;28.37;16.57;;;;;;;-2.86;80.51;99447.69;6289846;28;20351;-43
2022/12/18 11:32:42;;;;;;;27.80;15.13;;;;;;;-3.00;81.24;99447.69;6294867;28;20683;-43
2022/12/18 11:35:51;;;;;;;26.50;15.53;;;;;;;-2.95;81.37;99451.97;6290341;28;20308;-43
2022/12/18 11:38:55;;;;;;;29.67;16.00;;;;;;;-2.89;81.79;99446.81;6292301;28;20265;-44
2022/12/18 11:42:23;;;;;;;31.60;17.17;;;;;;;-2.74;81.16;99439.97;6291849;28;20372;-44
2022/12/18 11:45:36;;;;;;;27.97;15.97;;;;;;;-2.82;81.24;99435.66;6294291;28;20689;-43
2022/12/18 11:48:44;;;;;;;29.77;16.40;;;;;;;-2.85;81.46;99422.72;6292227;28;20324;-43
2022/12/18 11:52:00;;;;;;;27.57;16.17;;;;;;;-2.99;81.49;99427.84;6275648;28;20595;-44
2022/12/18 11:55:11;;;;;;;31.23;15.33;;;;;;;-3.04;82.00;99425.28;6290472;28;20235;-43
2022/12/18 11:58:37;;;;;;;27.27;16.33;;;;;;;-2.84;82.29;99420.16;6288890;28;20246;-43
2022/12/18 12:01:50;;;;;;;29.60;16.37;;;;;;;-2.98;81.60;99420.13;6291664;28;20231;-43
2022/12/18 12:04:52;;;;;;;31.70;16.97;;;;;;;-3.03;82.09;99423.56;6291946;28;20310;-43
2022/12/18 12:08:39;;;;;;;30.23;16.07;;;;;;;-3.00;82.27;99418.41;6291478;28;20230;-43
2022/12/18 12:11:44;;;;;;;27.83;14.63;;;;;;;-3.02;81.36;99414.97;6285861;28;20313;-43
2022/12/18 12:15:17;;;;;;;26.63;14.80;;;;;;;-2.94;82.03;99422.72;6292239;28;20311;-43
2022/12/18 12:18:46;;;;;;;27.27;14.47;;;;;;;-2.84;81.80;99416.69;6291285;28;20304;-44
2022/12/18 12:21:55;;;;;;;25.87;15.00;;;;;;;-2.78;81.52;99414.97;6286136;28;20296;-43
2022/12/18 12:25:06;;;;;;;29.77;15.07;;;;;;;-2.73;80.63;99415.00;6288691;28;20292;-43
2022/12/18 12:28:13;;;;;;;24.43;14.03;;;;;;;-2.70;81.05;99413.28;6271381;28;20273;-43
2022/12/18 12:31:37;;;;;;;23.70;14.07;;;;;;;-2.69;80.67;99419.28;6294173;28;20302;-43
2022/12/18 12:35:29;;;;;;;25.77;14.63;;;;;;;-2.84;80.73;99406.38;6289367;28;20608;-43
2022/12/18 12:38:49;;;;;;;28.37;15.37;;;;;;;-2.90;81.58;99414.13;6290556;28;20252;-44
2022/12/18 12:45:30;;;;;;;29.63;16.47;;;;;;;-2.94;81.82;99404.63;6243890;28;20293;-43
2022/12/18 12:48:35;;;;;;;26.87;15.27;;;;;;;-2.94;82.13;99409.81;6284916;28;20234;-43
2022/12/18 12:51:42;;;;;;;26.13;14.80;;;;;;;-2.87;82.26;99408.94;6290699;28;20230;-43
2022/12/18 12:54:46;;;;;;;29.73;14.93;;;;;;;-2.82;82.45;99402.06;6291620;28;20233;-43
2022/12/18 12:57:57;;;;;;;26.10;16.03;;;;;;;-2.74;82.55;99413.25;6296697;28;20701;-43
2022/12/18 13:01:05;;;;;;;23.83;14.73;;;;;;;-2.82;82.41;99415.84;6290184;28;20269;-43
2022/12/18 13:04:21;;;;;;;25.47;14.57;;;;;;;-2.75;82.64;99417.56;6291435;28;20324;-43
2022/12/18 13:07:26;;;;;;;27.97;16.20;;;;;;;-2.84;82.17;99425.31;6292331;28;20659;-43
2022/12/18 13:10:41;;;;;;;31.63;15.90;;;;;;;-2.90;82.41;99433.06;6273129;28;20233;-43
2022/12/18 13:13:51;;;;;;;27.60;16.43;;;;;;;-2.94;82.49;99439.06;6291191;28;20234;-43
2022/12/18 13:17:30;;;;;;;29.53;17.30;;;;;;;-2.98;82.62;99442.50;6291200;28;20707;-42
2022/12/18 13:20:37;;;;;;;33.77;19.27;;;;;;;-3.09;83.24;99445.06;6170581;28;20548;-43
2022/12/18 13:23:40;;;;;;;35.57;18.20;;;;;;;-3.18;83.50;99445.03;6168581;28;20632;-43
2022/12/18 13:26:43;;;;;;;32.30;19.17;;;;;;;-3.21;83.76;99434.72;6173200;28;20248;-43
2022/12/18 13:29:45;;;;;;;36.00;19.90;;;;;;;-3.21;84.21;99441.59;6166143;28;20238;-43
2022/12/18 13:32:48;;;;;;;35.33;18.90;;;;;;;-3.23;84.61;99425.25;6162547;28;20240;-43
2022/12/18 13:35:52;;;;;;;34.57;19.77;;;;;;;-3.32;84.54;99427.78;6168159;28;20241;-43
2022/12/18 13:39:18;;;;;;;33.17;19.17;;;;;;;-3.35;85.06;99428.63;6168050;28;20493;-43
2022/12/18 13:46:06;;;;;;;36.37;19.23;;;;;;;-3.27;85.75;99437.25;6164127;28;20260;-44
2022/12/18 13:49:14;;;;;;;38.63;21.23;;;;;;;-3.23;85.21;99445.88;6168540;28;20327;-43
2022/12/18 13:52:24;;;;;;;43.30;22.40;;;;;;;-3.29;84.85;99441.56;6164962;28;20245;-43
2022/12/18 13:55:27;;;;;;;40.23;22.03;;;;;;;-3.39;85.96;99450.13;6275921;28;20834;-43
2022/12/18 13:58:29;;;;;;;41.60;22.40;;;;;;;-3.36;85.73;99450.16;6289280;28;20647;-43
2022/12/18 14:01:31;;;;;;;39.23;21.80;;;;;;;-3.35;85.54;99455.31;6290112;28;20580;-43
2022/12/18 14:04:35;;;;;;;41.60;22.13;;;;;;;-3.38;86.32;99457.88;6287112;28;20626;-43
2022/12/18 14:07:38;;;;;;;35.57;19.87;;;;;;;-3.37;86.63;99463.91;6285045;28;20234;-43
2022/12/18 14:10:50;;;;;;;43.77;23.17;;;;;;;-3.37;86.47;99463.91;6288684;28;20253;-43
2022/12/18 14:13:53;;;;;;;39.37;22.17;;;;;;;-3.42;86.32;99468.19;6283118;28;20221;-43
2022/12/18 14:16:55;;;;;;;41.47;21.93;;;;;;;-3.44;86.22;99468.19;6275229;28;20238;-43
2022/12/18 14:19:58;;;;;;;37.37;20.60;;;;;;;-3.47;86.62;99470.75;6282260;28;20242;-44
2022/12/18 14:23:00;;;;;;;45.17;23.80;;;;;;;-3.47;86.89;99473.31;6277824;28;20241;-45
2022/12/18 14:26:29;;;;;;;38.83;23.00;;;;;;;-3.52;87.26;99480.19;6278176;28;20226;-44
2022/12/18 14:29:34;;;;;;;48.67;32.43;;;;;;;-3.14;86.47;99474.31;6277877;28;20445;-43
2022/12/18 14:32:36;;;;;;;40.53;24.83;;;;;;;-3.42;86.67;99491.41;6273303;28;20238;-44
2022/12/18 14:35:42;;;;;;;40.93;22.53;;;;;;;-3.55;87.26;99493.06;6283159;28;20274;-44
2022/12/18 14:38:49;;;;;;;41.67;22.10;;;;;;;-3.57;87.15;99486.16;6280706;28;20230;-43